Terminal Aerodrome Forecast
Issued by NWS Portland, OR

Home | Current Version | Previous Version | Text Only | Print | Product List | Glossary On
Versions: 1 2 3 4 5 6 7 8 9 10 11 12 13 14 15 16 17 18 19 20 21 22 23 24 25 26 27 28 29 30 31 32 33 34
000
FTUS46 KPQR 022343
TAFEUG
TAF
KEUG 022343Z 0300/0324 35010KT P6SM BKN050
     FM030600 VRB03KT P6SM SCT035
     FM031100 VRB03KT P6SM SCT020
     FM031800 36008KT P6SM SCT250
     FM032200 36012KT P6SM SCT250=

USA.gov is the U.S. government's official web portal to all federal, state and local government web resources and services.